sensor_id;sensor_type;location;lat;lon;timestamp;P1;durP1;ratioP1;P2;durP2;ratioP2
55827;SDS011;41758;51.992;5.890;2024-03-02T00:01:10;4.75;;;2.60;;
55827;SDS011;41758;51.992;5.890;2024-03-02T00:03:38;4.15;;;2.40;;
55827;SDS011;41758;51.992;5.890;2024-03-02T00:06:06;4.55;;;2.47;;
55827;SDS011;41758;51.992;5.890;2024-03-02T00:08:32;4.50;;;2.30;;
55827;SDS011;41758;51.992;5.890;2024-03-02T00:10:58;4.85;;;2.40;;
55827;SDS011;41758;51.992;5.890;2024-03-02T00:13:24;4.40;;;2.50;;
55827;SDS011;41758;51.992;5.890;2024-03-02T00:15:57;5.35;;;2.50;;
55827;SDS011;41758;51.992;5.890;2024-03-02T00:18:33;4.25;;;2.38;;
55827;SDS011;41758;51.992;5.890;2024-03-02T00:21:00;4.07;;;2.38;;
55827;SDS011;41758;51.992;5.890;2024-03-02T00:23:29;4.43;;;2.40;;
55827;SDS011;41758;51.992;5.890;2024-03-02T00:25:58;3.90;;;2.15;;
55827;SDS011;41758;51.992;5.890;2024-03-02T00:28:31;5.18;;;2.50;;
55827;SDS011;41758;51.992;5.890;2024-03-02T00:33:30;4.13;;;2.30;;
55827;SDS011;41758;51.992;5.890;2024-03-02T00:35:57;3.53;;;2.10;;
55827;SDS011;41758;51.992;5.890;2024-03-02T00:38:24;4.78;;;2.50;;
55827;SDS011;41758;51.992;5.890;2024-03-02T00:40:51;3.92;;;2.33;;
55827;SDS011;41758;51.992;5.890;2024-03-02T00:43:41;4.63;;;2.65;;
55827;SDS011;41758;51.992;5.890;2024-03-02T00:46:13;3.83;;;2.30;;
55827;SDS011;41758;51.992;5.890;2024-03-02T00:49:00;4.35;;;2.40;;
55827;SDS011;41758;51.992;5.890;2024-03-02T00:51:33;5.80;;;2.50;;
55827;SDS011;41758;51.992;5.890;2024-03-02T00:54:01;4.03;;;2.28;;
55827;SDS011;41758;51.992;5.890;2024-03-02T00:56:29;4.45;;;2.10;;
55827;SDS011;41758;51.992;5.890;2024-03-02T00:58:55;4.35;;;2.22;;
55827;SDS011;41758;51.992;5.890;2024-03-02T01:01:21;4.57;;;2.42;;
55827;SDS011;41758;51.992;5.890;2024-03-02T01:03:47;3.78;;;2.15;;
55827;SDS011;41758;51.992;5.890;2024-03-02T01:06:14;4.82;;;2.33;;
55827;SDS011;41758;51.992;5.890;2024-03-02T01:08:40;4.00;;;2.35;;
55827;SDS011;41758;51.992;5.890;2024-03-02T01:11:07;4.93;;;2.33;;
55827;SDS011;41758;51.992;5.890;2024-03-02T01:13:33;4.88;;;2.45;;
55827;SDS011;41758;51.992;5.890;2024-03-02T01:15:59;5.05;;;2.80;;
55827;SDS011;41758;51.992;5.890;2024-03-02T01:18:25;4.63;;;2.40;;
55827;SDS011;41758;51.992;5.890;2024-03-02T01:20:51;4.07;;;2.10;;
55827;SDS011;41758;51.992;5.890;2024-03-02T01:23:20;3.70;;;2.10;;
55827;SDS011;41758;51.992;5.890;2024-03-02T01:25:49;5.35;;;2.30;;
55827;SDS011;41758;51.992;5.890;2024-03-02T01:28:15;5.72;;;2.30;;
55827;SDS011;41758;51.992;5.890;2024-03-02T01:30:41;5.10;;;2.38;;
55827;SDS011;41758;51.992;5.890;2024-03-02T01:33:07;4.32;;;2.20;;
55827;SDS011;41758;51.992;5.890;2024-03-02T01:35:33;3.25;;;1.83;;
55827;SDS011;41758;51.992;5.890;2024-03-02T01:38:00;3.58;;;1.88;;
55827;SDS011;41758;51.992;5.890;2024-03-02T01:40:26;4.60;;;1.80;;
55827;SDS011;41758;51.992;5.890;2024-03-02T01:42:52;3.95;;;1.60;;
55827;SDS011;41758;51.992;5.890;2024-03-02T01:45:23;2.65;;;1.52;;
55827;SDS011;41758;51.992;5.890;2024-03-02T01:47:49;3.08;;;1.85;;
55827;SDS011;41758;51.992;5.890;2024-03-02T01:50:14;3.17;;;1.40;;
55827;SDS011;41758;51.992;5.890;2024-03-02T01:52:40;2.97;;;1.42;;
55827;SDS011;41758;51.992;5.890;2024-03-02T01:55:06;1.75;;;1.20;;
55827;SDS011;41758;51.992;5.890;2024-03-02T01:57:32;1.30;;;1.20;;
55827;SDS011;41758;51.992;5.890;2024-03-02T01:59:59;1.92;;;1.20;;
55827;SDS011;41758;51.992;5.890;2024-03-02T02:02:25;2.00;;;1.20;;
55827;SDS011;41758;51.992;5.890;2024-03-02T02:04:51;2.95;;;1.30;;
55827;SDS011;41758;51.992;5.890;2024-03-02T02:07:17;2.45;;;1.40;;
55827;SDS011;41758;51.992;5.890;2024-03-02T02:09:43;1.27;;;1.00;;
55827;SDS011;41758;51.992;5.890;2024-03-02T02:12:09;2.80;;;1.20;;
55827;SDS011;41758;51.992;5.890;2024-03-02T02:14:35;1.45;;;1.00;;
55827;SDS011;41758;51.992;5.890;2024-03-02T02:17:01;1.67;;;1.17;;
55827;SDS011;41758;51.992;5.890;2024-03-02T02:19:27;1.73;;;1.20;;
55827;SDS011;41758;51.992;5.890;2024-03-02T02:21:53;1.95;;;1.20;;
55827;SDS011;41758;51.992;5.890;2024-03-02T02:24:22;2.13;;;1.00;;
55827;SDS011;41758;51.992;5.890;2024-03-02T02:26:48;1.60;;;1.10;;
55827;SDS011;41758;51.992;5.890;2024-03-02T02:29:13;1.73;;;1.00;;
55827;SDS011;41758;51.992;5.890;2024-03-02T02:31:39;1.90;;;1.00;;
55827;SDS011;41758;51.992;5.890;2024-03-02T02:34:05;1.40;;;1.00;;
55827;SDS011;41758;51.992;5.890;2024-03-02T02:36:32;0.90;;;0.80;;
55827;SDS011;41758;51.992;5.890;2024-03-02T02:38:58;1.20;;;1.00;;
55827;SDS011;41758;51.992;5.890;2024-03-02T02:41:28;1.45;;;0.95;;
55827;SDS011;41758;51.992;5.890;2024-03-02T02:43:55;1.10;;;1.00;;
55827;SDS011;41758;51.992;5.890;2024-03-02T02:46:20;1.25;;;1.05;;
55827;SDS011;41758;51.992;5.890;2024-03-02T02:48:46;1.10;;;1.00;;
55827;SDS011;41758;51.992;5.890;2024-03-02T02:51:12;1.38;;;0.98;;
55827;SDS011;41758;51.992;5.890;2024-03-02T02:53:37;1.50;;;1.00;;
55827;SDS011;41758;51.992;5.890;2024-03-02T02:56:06;1.88;;;1.10;;
55827;SDS011;41758;51.992;5.890;2024-03-02T02:58:32;2.13;;;1.10;;
55827;SDS011;41758;51.992;5.890;2024-03-02T03:00:57;1.10;;;1.00;;
55827;SDS011;41758;51.992;5.890;2024-03-02T03:03:23;1.75;;;1.00;;
55827;SDS011;41758;51.992;5.890;2024-03-02T03:05:49;2.65;;;1.20;;
55827;SDS011;41758;51.992;5.890;2024-03-02T03:08:14;1.10;;;1.00;;
55827;SDS011;41758;51.992;5.890;2024-03-02T03:10:41;1.88;;;1.00;;
55827;SDS011;41758;51.992;5.890;2024-03-02T03:13:07;1.38;;;1.00;;
55827;SDS011;41758;51.992;5.890;2024-03-02T03:15:36;1.33;;;0.90;;
55827;SDS011;41758;51.992;5.890;2024-03-02T03:18:03;1.15;;;1.05;;
55827;SDS011;41758;51.992;5.890;2024-03-02T03:20:29;1.27;;;1.00;;
55827;SDS011;41758;51.992;5.890;2024-03-02T03:22:56;1.13;;;1.00;;
55827;SDS011;41758;51.992;5.890;2024-03-02T03:25:22;1.67;;;1.10;;
55827;SDS011;41758;51.992;5.890;2024-03-02T03:27:48;1.42;;;1.00;;
55827;SDS011;41758;51.992;5.890;2024-03-02T03:30:13;1.00;;;0.90;;
55827;SDS011;41758;51.992;5.890;2024-03-02T03:32:39;1.05;;;0.90;;
55827;SDS011;41758;51.992;5.890;2024-03-02T03:35:05;1.45;;;1.10;;
55827;SDS011;41758;51.992;5.890;2024-03-02T03:37:32;1.50;;;1.02;;
55827;SDS011;41758;51.992;5.890;2024-03-02T03:40:04;1.58;;;1.00;;
55827;SDS011;41758;51.992;5.890;2024-03-02T03:42:36;1.02;;;0.93;;
55827;SDS011;41758;51.992;5.890;2024-03-02T03:45:03;2.13;;;1.00;;
55827;SDS011;41758;51.992;5.890;2024-03-02T03:47:30;1.25;;;0.90;;
55827;SDS011;41758;51.992;5.890;2024-03-02T03:49:56;1.35;;;0.90;;
55827;SDS011;41758;51.992;5.890;2024-03-02T03:52:23;1.33;;;1.10;;
55827;SDS011;41758;51.992;5.890;2024-03-02T03:54:48;1.67;;;0.90;;
55827;SDS011;41758;51.992;5.890;2024-03-02T03:57:14;1.98;;;1.20;;
55827;SDS011;41758;51.992;5.890;2024-03-02T03:59:41;1.33;;;1.10;;
55827;SDS011;41758;51.992;5.890;2024-03-02T04:02:07;0.98;;;0.88;;
55827;SDS011;41758;51.992;5.890;2024-03-02T04:04:33;1.60;;;1.15;;
55827;SDS011;41758;51.992;5.890;2024-03-02T04:06:59;1.25;;;1.00;;
55827;SDS011;41758;51.992;5.890;2024-03-02T04:09:25;1.00;;;0.90;;
55827;SDS011;41758;51.992;5.890;2024-03-02T04:11:51;1.30;;;1.00;;
55827;SDS011;41758;51.992;5.890;2024-03-02T04:14:17;1.20;;;1.10;;
55827;SDS011;41758;51.992;5.890;2024-03-02T04:16:42;1.23;;;1.10;;
55827;SDS011;41758;51.992;5.890;2024-03-02T04:19:08;1.17;;;1.08;;
55827;SDS011;41758;51.992;5.890;2024-03-02T04:21:33;2.50;;;1.10;;
55827;SDS011;41758;51.992;5.890;2024-03-02T04:23:59;2.30;;;1.30;;
55827;SDS011;41758;51.992;5.890;2024-03-02T04:26:25;1.75;;;1.13;;
55827;SDS011;41758;51.992;5.890;2024-03-02T04:28:51;1.85;;;1.20;;
55827;SDS011;41758;51.992;5.890;2024-03-02T04:31:17;1.83;;;1.20;;
55827;SDS011;41758;51.992;5.890;2024-03-02T04:33:43;1.80;;;1.10;;
55827;SDS011;41758;51.992;5.890;2024-03-02T04:36:09;2.13;;;1.10;;
55827;SDS011;41758;51.992;5.890;2024-03-02T04:38:35;1.73;;;1.10;;
55827;SDS011;41758;51.992;5.890;2024-03-02T04:41:01;1.42;;;1.10;;
55827;SDS011;41758;51.992;5.890;2024-03-02T04:43:27;2.25;;;1.33;;
55827;SDS011;41758;51.992;5.890;2024-03-02T04:45:52;1.38;;;1.05;;
55827;SDS011;41758;51.992;5.890;2024-03-02T04:48:18;1.80;;;1.10;;
55827;SDS011;41758;51.992;5.890;2024-03-02T04:50:44;1.30;;;1.10;;
55827;SDS011;41758;51.992;5.890;2024-03-02T04:53:10;1.30;;;1.10;;
55827;SDS011;41758;51.992;5.890;2024-03-02T04:55:36;1.73;;;1.02;;
55827;SDS011;41758;51.992;5.890;2024-03-02T04:58:04;2.40;;;1.30;;
55827;SDS011;41758;51.992;5.890;2024-03-02T05:00:30;1.70;;;1.17;;
55827;SDS011;41758;51.992;5.890;2024-03-02T05:02:56;1.20;;;1.10;;
55827;SDS011;41758;51.992;5.890;2024-03-02T05:05:21;1.67;;;1.20;;
55827;SDS011;41758;51.992;5.890;2024-03-02T05:07:47;2.38;;;1.25;;
55827;SDS011;41758;51.992;5.890;2024-03-02T05:10:13;2.03;;;1.10;;
55827;SDS011;41758;51.992;5.890;2024-03-02T05:12:39;1.80;;;1.27;;
55827;SDS011;41758;51.992;5.890;2024-03-02T05:15:08;2.53;;;1.30;;
55827;SDS011;41758;51.992;5.890;2024-03-02T05:17:37;2.50;;;1.20;;
55827;SDS011;41758;51.992;5.890;2024-03-02T05:20:04;2.10;;;1.20;;
55827;SDS011;41758;51.992;5.890;2024-03-02T05:22:33;2.15;;;1.20;;
55827;SDS011;41758;51.992;5.890;2024-03-02T05:25:00;1.50;;;1.10;;
55827;SDS011;41758;51.992;5.890;2024-03-02T05:27:26;1.98;;;1.20;;
55827;SDS011;41758;51.992;5.890;2024-03-02T05:29:52;1.65;;;1.13;;
55827;SDS011;41758;51.992;5.890;2024-03-02T05:32:18;1.95;;;1.00;;
55827;SDS011;41758;51.992;5.890;2024-03-02T05:34:44;3.42;;;1.30;;
55827;SDS011;41758;51.992;5.890;2024-03-02T05:37:09;2.17;;;1.30;;
55827;SDS011;41758;51.992;5.890;2024-03-02T05:39:35;2.15;;;1.20;;
55827;SDS011;41758;51.992;5.890;2024-03-02T05:42:01;1.40;;;1.10;;
55827;SDS011;41758;51.992;5.890;2024-03-02T05:44:26;1.75;;;1.30;;
55827;SDS011;41758;51.992;5.890;2024-03-02T05:46:52;1.73;;;1.10;;
55827;SDS011;41758;51.992;5.890;2024-03-02T05:49:18;1.83;;;1.10;;
55827;SDS011;41758;51.992;5.890;2024-03-02T05:51:43;1.90;;;1.17;;
55827;SDS011;41758;51.992;5.890;2024-03-02T05:54:09;2.50;;;1.23;;
55827;SDS011;41758;51.992;5.890;2024-03-02T05:56:35;2.47;;;1.27;;
55827;SDS011;41758;51.992;5.890;2024-03-02T05:59:00;2.35;;;1.20;;
55827;SDS011;41758;51.992;5.890;2024-03-02T06:01:39;2.92;;;1.30;;
55827;SDS011;41758;51.992;5.890;2024-03-02T06:04:05;2.53;;;1.48;;
55827;SDS011;41758;51.992;5.890;2024-03-02T06:06:31;3.20;;;1.30;;
55827;SDS011;41758;51.992;5.890;2024-03-02T06:08:59;2.15;;;1.20;;
55827;SDS011;41758;51.992;5.890;2024-03-02T06:11:25;2.10;;;1.40;;
55827;SDS011;41758;51.992;5.890;2024-03-02T06:13:51;2.15;;;1.00;;
55827;SDS011;41758;51.992;5.890;2024-03-02T06:16:17;3.28;;;1.20;;
55827;SDS011;41758;51.992;5.890;2024-03-02T06:18:42;2.10;;;1.15;;
55827;SDS011;41758;51.992;5.890;2024-03-02T06:21:08;1.45;;;1.10;;
55827;SDS011;41758;51.992;5.890;2024-03-02T06:23:33;2.10;;;1.10;;
55827;SDS011;41758;51.992;5.890;2024-03-02T06:26:00;1.35;;;1.05;;
55827;SDS011;41758;51.992;5.890;2024-03-02T06:28:27;1.85;;;1.10;;
55827;SDS011;41758;51.992;5.890;2024-03-02T06:30:53;2.72;;;1.20;;
55827;SDS011;41758;51.992;5.890;2024-03-02T06:33:19;1.77;;;1.30;;
55827;SDS011;41758;51.992;5.890;2024-03-02T06:35:45;1.90;;;1.27;;
55827;SDS011;41758;51.992;5.890;2024-03-02T06:38:10;2.13;;;1.30;;
55827;SDS011;41758;51.992;5.890;2024-03-02T06:40:36;2.10;;;1.15;;
55827;SDS011;41758;51.992;5.890;2024-03-02T06:43:04;2.17;;;1.13;;
55827;SDS011;41758;51.992;5.890;2024-03-02T06:45:30;2.65;;;1.27;;
55827;SDS011;41758;51.992;5.890;2024-03-02T06:47:56;2.70;;;1.30;;
55827;SDS011;41758;51.992;5.890;2024-03-02T06:50:22;2.78;;;1.30;;
55827;SDS011;41758;51.992;5.890;2024-03-02T06:52:47;2.08;;;1.10;;
55827;SDS011;41758;51.992;5.890;2024-03-02T06:55:13;2.88;;;1.25;;
55827;SDS011;41758;51.992;5.890;2024-03-02T06:57:39;2.10;;;1.33;;
55827;SDS011;41758;51.992;5.890;2024-03-02T07:00:04;2.63;;;1.35;;
55827;SDS011;41758;51.992;5.890;2024-03-02T07:02:34;2.08;;;1.25;;
55827;SDS011;41758;51.992;5.890;2024-03-02T07:05:01;3.13;;;1.30;;
55827;SDS011;41758;51.992;5.890;2024-03-02T07:07:27;3.35;;;1.40;;
55827;SDS011;41758;51.992;5.890;2024-03-02T07:09:53;3.63;;;1.23;;
55827;SDS011;41758;51.992;5.890;2024-03-02T07:12:18;2.97;;;1.15;;
55827;SDS011;41758;51.992;5.890;2024-03-02T07:14:44;2.53;;;1.58;;
55827;SDS011;41758;51.992;5.890;2024-03-02T07:17:22;1.98;;;1.25;;
55827;SDS011;41758;51.992;5.890;2024-03-02T07:19:48;1.77;;;1.20;;
55827;SDS011;41758;51.992;5.890;2024-03-02T07:22:13;2.45;;;1.30;;
55827;SDS011;41758;51.992;5.890;2024-03-02T07:24:40;1.90;;;1.20;;
55827;SDS011;41758;51.992;5.890;2024-03-02T07:27:09;2.60;;;1.20;;
55827;SDS011;41758;51.992;5.890;2024-03-02T07:29:35;2.58;;;1.40;;
55827;SDS011;41758;51.992;5.890;2024-03-02T07:32:01;2.05;;;1.40;;
55827;SDS011;41758;51.992;5.890;2024-03-02T07:34:27;2.30;;;1.25;;
55827;SDS011;41758;51.992;5.890;2024-03-02T07:36:53;2.08;;;1.40;;
55827;SDS011;41758;51.992;5.890;2024-03-02T07:39:18;3.17;;;1.60;;
55827;SDS011;41758;51.992;5.890;2024-03-02T07:41:45;2.72;;;1.50;;
55827;SDS011;41758;51.992;5.890;2024-03-02T07:44:11;3.13;;;1.52;;
55827;SDS011;41758;51.992;5.890;2024-03-02T07:46:40;2.47;;;1.40;;
55827;SDS011;41758;51.992;5.890;2024-03-02T07:49:06;3.90;;;1.70;;
55827;SDS011;41758;51.992;5.890;2024-03-02T07:51:33;6.57;;;2.42;;
55827;SDS011;41758;51.992;5.890;2024-03-02T07:53:58;28.27;;;11.85;;
55827;SDS011;41758;51.992;5.890;2024-03-02T07:56:24;20.42;;;9.20;;
55827;SDS011;41758;51.992;5.890;2024-03-02T07:58:50;8.85;;;4.10;;
55827;SDS011;41758;51.992;5.890;2024-03-02T08:01:16;5.47;;;2.67;;
55827;SDS011;41758;51.992;5.890;2024-03-02T08:03:42;5.78;;;2.40;;
55827;SDS011;41758;51.992;5.890;2024-03-02T08:06:22;5.53;;;1.50;;
55827;SDS011;41758;51.992;5.890;2024-03-02T08:08:48;3.80;;;1.60;;
55827;SDS011;41758;51.992;5.890;2024-03-02T08:11:13;3.33;;;1.45;;
55827;SDS011;41758;51.992;5.890;2024-03-02T08:13:39;2.38;;;1.45;;
55827;SDS011;41758;51.992;5.890;2024-03-02T08:16:05;3.03;;;1.33;;
55827;SDS011;41758;51.992;5.890;2024-03-02T08:18:34;3.17;;;1.40;;
55827;SDS011;41758;51.992;5.890;2024-03-02T08:21:00;2.67;;;1.30;;
55827;SDS011;41758;51.992;5.890;2024-03-02T08:23:26;2.85;;;1.42;;
55827;SDS011;41758;51.992;5.890;2024-03-02T08:25:52;3.22;;;1.40;;
55827;SDS011;41758;51.992;5.890;2024-03-02T08:28:17;4.00;;;1.40;;
55827;SDS011;41758;51.992;5.890;2024-03-02T08:30:43;4.30;;;1.30;;
55827;SDS011;41758;51.992;5.890;2024-03-02T08:33:09;3.33;;;1.48;;
55827;SDS011;41758;51.992;5.890;2024-03-02T08:35:34;2.05;;;1.20;;
55827;SDS011;41758;51.992;5.890;2024-03-02T08:38:04;4.00;;;1.52;;
55827;SDS011;41758;51.992;5.890;2024-03-02T08:40:30;4.47;;;1.50;;
55827;SDS011;41758;51.992;5.890;2024-03-02T08:42:56;3.80;;;1.40;;
55827;SDS011;41758;51.992;5.890;2024-03-02T08:45:22;2.08;;;1.25;;
55827;SDS011;41758;51.992;5.890;2024-03-02T08:47:48;3.85;;;1.50;;
55827;SDS011;41758;51.992;5.890;2024-03-02T08:50:13;4.43;;;1.60;;
55827;SDS011;41758;51.992;5.890;2024-03-02T08:52:39;5.50;;;1.63;;
55827;SDS011;41758;51.992;5.890;2024-03-02T08:55:05;4.07;;;1.70;;
55827;SDS011;41758;51.992;5.890;2024-03-02T08:57:32;4.80;;;1.65;;
55827;SDS011;41758;51.992;5.890;2024-03-02T08:59:59;3.40;;;1.42;;
55827;SDS011;41758;51.992;5.890;2024-03-02T09:02:25;4.38;;;1.70;;
55827;SDS011;41758;51.992;5.890;2024-03-02T09:04:50;3.22;;;1.45;;
55827;SDS011;41758;51.992;5.890;2024-03-02T09:07:16;3.30;;;1.40;;
55827;SDS011;41758;51.992;5.890;2024-03-02T09:09:42;3.83;;;1.58;;
55827;SDS011;41758;51.992;5.890;2024-03-02T09:12:08;3.45;;;1.45;;
55827;SDS011;41758;51.992;5.890;2024-03-02T09:14:34;4.10;;;1.65;;
55827;SDS011;41758;51.992;5.890;2024-03-02T09:17:01;6.30;;;1.90;;
55827;SDS011;41758;51.992;5.890;2024-03-02T09:19:28;3.30;;;1.52;;
55827;SDS011;41758;51.992;5.890;2024-03-02T09:21:54;4.10;;;1.55;;
55827;SDS011;41758;51.992;5.890;2024-03-02T09:24:21;4.70;;;1.85;;
55827;SDS011;41758;51.992;5.890;2024-03-02T09:26:47;3.67;;;1.60;;
55827;SDS011;41758;51.992;5.890;2024-03-02T09:29:13;4.75;;;1.50;;
55827;SDS011;41758;51.992;5.890;2024-03-02T09:31:39;4.00;;;1.50;;
55827;SDS011;41758;51.992;5.890;2024-03-02T09:34:08;4.50;;;1.50;;
55827;SDS011;41758;51.992;5.890;2024-03-02T09:36:34;5.03;;;1.60;;
55827;SDS011;41758;51.992;5.890;2024-03-02T09:39:00;3.15;;;1.40;;
55827;SDS011;41758;51.992;5.890;2024-03-02T09:41:25;4.40;;;1.70;;
55827;SDS011;41758;51.992;5.890;2024-03-02T09:43:51;4.00;;;1.60;;
55827;SDS011;41758;51.992;5.890;2024-03-02T09:46:17;3.63;;;1.50;;
55827;SDS011;41758;51.992;5.890;2024-03-02T09:48:44;5.65;;;1.70;;
55827;SDS011;41758;51.992;5.890;2024-03-02T09:51:10;4.40;;;1.63;;
55827;SDS011;41758;51.992;5.890;2024-03-02T09:53:37;4.07;;;1.50;;
55827;SDS011;41758;51.992;5.890;2024-03-02T09:56:03;4.88;;;1.40;;
55827;SDS011;41758;51.992;5.890;2024-03-02T09:58:29;6.47;;;1.70;;
55827;SDS011;41758;51.992;5.890;2024-03-02T10:00:55;5.13;;;1.70;;
55827;SDS011;41758;51.992;5.890;2024-03-02T10:03:25;4.72;;;1.70;;
55827;SDS011;41758;51.992;5.890;2024-03-02T10:05:54;3.85;;;1.73;;
55827;SDS011;41758;51.992;5.890;2024-03-02T10:08:19;3.85;;;1.55;;
55827;SDS011;41758;51.992;5.890;2024-03-02T10:10:45;3.92;;;1.50;;
55827;SDS011;41758;51.992;5.890;2024-03-02T10:13:12;3.75;;;1.60;;
55827;SDS011;41758;51.992;5.890;2024-03-02T10:15:39;6.20;;;1.60;;
55827;SDS011;41758;51.992;5.890;2024-03-02T10:18:12;3.83;;;1.40;;
55827;SDS011;41758;51.992;5.890;2024-03-02T10:20:39;6.18;;;1.55;;
55827;SDS011;41758;51.992;5.890;2024-03-02T10:23:15;5.05;;;1.60;;
55827;SDS011;41758;51.992;5.890;2024-03-02T10:25:43;5.00;;;1.55;;
55827;SDS011;41758;51.992;5.890;2024-03-02T10:28:10;3.90;;;1.40;;
55827;SDS011;41758;51.992;5.890;2024-03-02T10:30:35;3.75;;;1.40;;
55827;SDS011;41758;51.992;5.890;2024-03-02T10:33:05;4.22;;;1.58;;
55827;SDS011;41758;51.992;5.890;2024-03-02T10:35:31;3.25;;;1.48;;
55827;SDS011;41758;51.992;5.890;2024-03-02T10:38:01;4.38;;;1.65;;
55827;SDS011;41758;51.992;5.890;2024-03-02T10:40:30;4.25;;;1.40;;
55827;SDS011;41758;51.992;5.890;2024-03-02T10:42:57;3.72;;;1.45;;
55827;SDS011;41758;51.992;5.890;2024-03-02T10:45:24;4.82;;;1.60;;
55827;SDS011;41758;51.992;5.890;2024-03-02T10:47:50;3.38;;;1.30;;
55827;SDS011;41758;51.992;5.890;2024-03-02T10:50:16;4.57;;;1.50;;
55827;SDS011;41758;51.992;5.890;2024-03-02T10:52:42;4.57;;;1.70;;
55827;SDS011;41758;51.992;5.890;2024-03-02T10:55:11;3.60;;;1.40;;
55827;SDS011;41758;51.992;5.890;2024-03-02T10:57:58;3.97;;;1.40;;
55827;SDS011;41758;51.992;5.890;2024-03-02T11:00:25;3.92;;;1.50;;
55827;SDS011;41758;51.992;5.890;2024-03-02T11:03:02;4.75;;;1.55;;
55827;SDS011;41758;51.992;5.890;2024-03-02T11:05:36;4.93;;;1.27;;
55827;SDS011;41758;51.992;5.890;2024-03-02T11:08:06;3.50;;;1.38;;
55827;SDS011;41758;51.992;5.890;2024-03-02T11:10:34;3.20;;;1.27;;
55827;SDS011;41758;51.992;5.890;2024-03-02T11:13:02;4.78;;;1.38;;
55827;SDS011;41758;51.992;5.890;2024-03-02T11:15:31;3.17;;;1.40;;
55827;SDS011;41758;51.992;5.890;2024-03-02T11:17:58;4.22;;;1.30;;
55827;SDS011;41758;51.992;5.890;2024-03-02T11:20:24;3.92;;;1.40;;
55827;SDS011;41758;51.992;5.890;2024-03-02T11:22:51;2.13;;;1.05;;
55827;SDS011;41758;51.992;5.890;2024-03-02T11:25:24;3.00;;;1.23;;
55827;SDS011;41758;51.992;5.890;2024-03-02T11:28:00;3.08;;;1.15;;
55827;SDS011;41758;51.992;5.890;2024-03-02T11:33:02;3.05;;;1.38;;
55827;SDS011;41758;51.992;5.890;2024-03-02T11:35:35;4.00;;;1.40;;
55827;SDS011;41758;51.992;5.890;2024-03-02T11:38:05;3.47;;;1.35;;
55827;SDS011;41758;51.992;5.890;2024-03-02T11:40:32;2.50;;;1.20;;
55827;SDS011;41758;51.992;5.890;2024-03-02T11:43:01;2.72;;;1.23;;
55827;SDS011;41758;51.992;5.890;2024-03-02T11:45:27;3.22;;;1.27;;
55827;SDS011;41758;51.992;5.890;2024-03-02T11:47:54;4.93;;;1.23;;
55827;SDS011;41758;51.992;5.890;2024-03-02T11:50:29;2.92;;;1.20;;
55827;SDS011;41758;51.992;5.890;2024-03-02T11:52:58;2.42;;;1.00;;
55827;SDS011;41758;51.992;5.890;2024-03-02T11:55:25;4.75;;;1.20;;
55827;SDS011;41758;51.992;5.890;2024-03-02T11:57:52;3.63;;;1.27;;
55827;SDS011;41758;51.992;5.890;2024-03-02T12:00:18;2.45;;;1.20;;
55827;SDS011;41758;51.992;5.890;2024-03-02T12:02:45;2.35;;;1.17;;
55827;SDS011;41758;51.992;5.890;2024-03-02T12:05:25;2.35;;;1.00;;
55827;SDS011;41758;51.992;5.890;2024-03-02T12:08:03;2.70;;;1.10;;
55827;SDS011;41758;51.992;5.890;2024-03-02T12:10:30;2.72;;;1.00;;
55827;SDS011;41758;51.992;5.890;2024-03-02T12:12:59;2.38;;;1.00;;
55827;SDS011;41758;51.992;5.890;2024-03-02T12:15:30;2.40;;;1.10;;
55827;SDS011;41758;51.992;5.890;2024-03-02T12:17:59;2.97;;;1.00;;
55827;SDS011;41758;51.992;5.890;2024-03-02T12:20:26;3.95;;;1.27;;
55827;SDS011;41758;51.992;5.890;2024-03-02T12:22:54;3.33;;;1.10;;
55827;SDS011;41758;51.992;5.890;2024-03-02T12:25:26;3.10;;;1.10;;
55827;SDS011;41758;51.992;5.890;2024-03-02T12:27:53;3.00;;;1.00;;
55827;SDS011;41758;51.992;5.890;2024-03-02T12:30:20;3.15;;;1.17;;
55827;SDS011;41758;51.992;5.890;2024-03-02T12:32:46;2.92;;;1.17;;
55827;SDS011;41758;51.992;5.890;2024-03-02T12:35:13;3.20;;;1.40;;
55827;SDS011;41758;51.992;5.890;2024-03-02T12:37:46;1.92;;;0.85;;
55827;SDS011;41758;51.992;5.890;2024-03-02T12:40:13;3.00;;;1.05;;
55827;SDS011;41758;51.992;5.890;2024-03-02T12:42:40;3.75;;;1.15;;
55827;SDS011;41758;51.992;5.890;2024-03-02T12:45:07;2.45;;;1.10;;
55827;SDS011;41758;51.992;5.890;2024-03-02T12:47:34;3.65;;;1.30;;
55827;SDS011;41758;51.992;5.890;2024-03-02T12:50:00;27.90;;;16.15;;
55827;SDS011;41758;51.992;5.890;2024-03-02T12:52:26;49.25;;;31.73;;
55827;SDS011;41758;51.992;5.890;2024-03-02T12:54:52;19.45;;;11.57;;
55827;SDS011;41758;51.992;5.890;2024-03-02T12:57:24;7.95;;;4.32;;
55827;SDS011;41758;51.992;5.890;2024-03-02T12:59:52;4.82;;;2.13;;
55827;SDS011;41758;51.992;5.890;2024-03-02T13:02:18;3.72;;;1.42;;
55827;SDS011;41758;51.992;5.890;2024-03-02T13:04:44;1.60;;;0.90;;
55827;SDS011;41758;51.992;5.890;2024-03-02T13:07:10;2.92;;;1.20;;
55827;SDS011;41758;51.992;5.890;2024-03-02T13:09:38;2.67;;;1.20;;
55827;SDS011;41758;51.992;5.890;2024-03-02T13:12:04;2.20;;;1.10;;
55827;SDS011;41758;51.992;5.890;2024-03-02T13:14:34;2.47;;;1.10;;
55827;SDS011;41758;51.992;5.890;2024-03-02T13:17:01;2.72;;;1.17;;
55827;SDS011;41758;51.992;5.890;2024-03-02T13:19:29;2.05;;;0.90;;
55827;SDS011;41758;51.992;5.890;2024-03-02T13:21:56;2.17;;;1.00;;
55827;SDS011;41758;51.992;5.890;2024-03-02T13:24:22;2.78;;;1.40;;
55827;SDS011;41758;51.992;5.890;2024-03-02T13:26:51;2.72;;;1.20;;
55827;SDS011;41758;51.992;5.890;2024-03-02T13:29:20;2.55;;;1.10;;
55827;SDS011;41758;51.992;5.890;2024-03-02T13:31:46;2.95;;;1.40;;
55827;SDS011;41758;51.992;5.890;2024-03-02T13:34:12;3.42;;;1.23;;
55827;SDS011;41758;51.992;5.890;2024-03-02T13:36:38;3.17;;;1.30;;
55827;SDS011;41758;51.992;5.890;2024-03-02T13:39:04;2.55;;;1.30;;
55827;SDS011;41758;51.992;5.890;2024-03-02T13:41:35;2.95;;;1.30;;
55827;SDS011;41758;51.992;5.890;2024-03-02T13:44:01;3.03;;;1.05;;
55827;SDS011;41758;51.992;5.890;2024-03-02T13:46:28;3.15;;;1.40;;
55827;SDS011;41758;51.992;5.890;2024-03-02T13:48:54;3.35;;;1.40;;
55827;SDS011;41758;51.992;5.890;2024-03-02T13:51:23;2.72;;;1.20;;
55827;SDS011;41758;51.992;5.890;2024-03-02T13:53:50;2.83;;;1.50;;
55827;SDS011;41758;51.992;5.890;2024-03-02T13:56:16;3.45;;;1.25;;
55827;SDS011;41758;51.992;5.890;2024-03-02T13:58:42;4.13;;;1.50;;
55827;SDS011;41758;51.992;5.890;2024-03-02T14:01:08;2.83;;;1.10;;
55827;SDS011;41758;51.992;5.890;2024-03-02T14:03:34;2.25;;;1.17;;
55827;SDS011;41758;51.992;5.890;2024-03-02T14:06:00;2.92;;;1.50;;
55827;SDS011;41758;51.992;5.890;2024-03-02T14:08:26;2.63;;;1.27;;
55827;SDS011;41758;51.992;5.890;2024-03-02T14:10:51;2.35;;;1.25;;
55827;SDS011;41758;51.992;5.890;2024-03-02T14:13:17;5.05;;;1.52;;
55827;SDS011;41758;51.992;5.890;2024-03-02T14:15:43;3.30;;;1.50;;
55827;SDS011;41758;51.992;5.890;2024-03-02T14:18:09;2.55;;;1.15;;
55827;SDS011;41758;51.992;5.890;2024-03-02T14:20:35;2.67;;;1.30;;
55827;SDS011;41758;51.992;5.890;2024-03-02T14:23:02;3.70;;;1.33;;
55827;SDS011;41758;51.992;5.890;2024-03-02T14:25:28;2.20;;;1.20;;
55827;SDS011;41758;51.992;5.890;2024-03-02T14:27:56;4.72;;;1.30;;
55827;SDS011;41758;51.992;5.890;2024-03-02T14:30:23;5.15;;;1.60;;
55827;SDS011;41758;51.992;5.890;2024-03-02T14:32:49;2.30;;;1.20;;
55827;SDS011;41758;51.992;5.890;2024-03-02T14:35:15;2.65;;;1.30;;
55827;SDS011;41758;51.992;5.890;2024-03-02T14:37:41;2.17;;;1.15;;
55827;SDS011;41758;51.992;5.890;2024-03-02T14:40:07;2.42;;;1.20;;
55827;SDS011;41758;51.992;5.890;2024-03-02T14:42:34;1.90;;;1.10;;
55827;SDS011;41758;51.992;5.890;2024-03-02T14:45:01;3.95;;;1.40;;
55827;SDS011;41758;51.992;5.890;2024-03-02T14:47:29;3.30;;;1.40;;
55827;SDS011;41758;51.992;5.890;2024-03-02T14:50:01;2.63;;;1.30;;
55827;SDS011;41758;51.992;5.890;2024-03-02T14:52:31;3.60;;;1.40;;